Alice Moran — WYN6272 — position and weather

sailwx.info

Track history (hours):
 
Tides and Currents Weather Stations Pressure Air Temp Water Temp Dewpoint Dewpoint Depression Visibility Wind Speed Wind Dir Waves Ship Positions

Alice Moran

Owner: MORAN TOWING CORPORATION, New Canaan, CT. More information available from US FCC via Universal Licensing System and Coast Guard Vessel Documentation Center.

Last reported at 2018-Feb-22 12:04 UTC. Time now 2018-Feb-24 14:02 UTC.
Position N 27°47' W 082°31'.

Length 38 m; draft 6.8 m.

Type: Tow > 200 m length. MMSI: 338724000.

Date/timePositionNaut miles runAvg speedWind from/ knotsBaromVisibWave heightAir tempDewpointWater temp
2018-Feb-22 12:04N 27°47' W 082°31'1 8.6
2018-Feb-22 12:00N 27°48' W 082°30'5 0.1
2018-Feb-21 01:29N 27°48' W 082°25'3 5.2
2018-Feb-21 00:58N 27°48' W 082°28'3 6.1
2018-Feb-21 00:25N 27°47' W 082°31'2 4.6
2018-Feb-21 00:00N 27°45' W 082°32'  
2018-Feb-13 21:56N 27°47' W 082°31'3 5.8
2018-Feb-13 21:30N 27°48' W 082°29'4 2.9
2018-Feb-13 20:14N 27°48' W 082°25'  
Track history (hours):
 
Tides and Currents Weather Stations Pressure Air Temp Water Temp Dewpoint Dewpoint Depression Visibility Wind Speed Wind Dir Waves Ship Positions

Alice Moran

Owner: MORAN TOWING CORPORATION, New Canaan, CT. More information available from US FCC via Universal Licensing System and Coast Guard Vessel Documentation Center.

Last reported at 2018-Feb-22 12:04 UTC. Time now 2018-Feb-24 14:02 UTC.
Position N 27°47' W 082°31'.

Length 38 m; draft 6.8 m.

Type: Tow > 200 m length. MMSI: 338724000.

Date/timePositionNaut miles runAvg speedWind from/ knotsBaromVisibWave heightAir tempDewpointWater temp
2018-Feb-22 12:04N 27°47' W 082°31'1 8.6
2018-Feb-22 12:00N 27°48' W 082°30'5 0.1
2018-Feb-21 01:29N 27°48' W 082°25'3 5.2
2018-Feb-21 00:58N 27°48' W 082°28'3 6.1
2018-Feb-21 00:25N 27°47' W 082°31'2 4.6
2018-Feb-21 00:00N 27°45' W 082°32'  
2018-Feb-13 21:56N 27°47' W 082°31'3 5.8
2018-Feb-13 21:30N 27°48' W 082°29'4 2.9
2018-Feb-13 20:14N 27°48' W 082°25'  

Dump ship's entire track history